createdAt,value
2023-03-26T00:01:33.623Z,16.60
2023-03-26T00:04:01.341Z,16.50
2023-03-26T00:06:39.138Z,16.50
2023-03-26T00:09:09.985Z,16.50
2023-03-26T00:11:37.026Z,16.50
2023-03-26T00:14:05.635Z,16.50
2023-03-26T00:16:33.178Z,16.50
2023-03-26T00:19:01.812Z,16.50
2023-03-26T00:21:31.176Z,16.50
2023-03-26T00:24:07.357Z,16.40
2023-03-26T00:26:37.703Z,16.40
2023-03-26T00:29:06.956Z,16.40
2023-03-26T00:31:34.884Z,16.40
2023-03-26T00:34:03.886Z,16.40
2023-03-26T00:36:31.282Z,16.40
2023-03-26T00:38:58.252Z,16.30
2023-03-26T00:41:26.992Z,16.40
2023-03-26T00:43:56.748Z,16.30
2023-03-26T00:46:25.119Z,16.30
2023-03-26T00:48:52.100Z,16.20
2023-03-26T00:51:20.763Z,16.10
2023-03-26T00:53:49.350Z,16.30
2023-03-26T00:56:17.452Z,16.20
2023-03-26T00:58:46.069Z,16.20
2023-03-26T01:01:16.380Z,16.20
2023-03-26T01:04:00.792Z,16.10
2023-03-26T01:06:36.179Z,16.10
2023-03-26T01:09:22.471Z,16.10
2023-03-26T01:11:50.338Z,16.00
2023-03-26T01:14:21.309Z,16.00
2023-03-26T01:17:02.964Z,16.10
2023-03-26T01:19:45.190Z,16.00
2023-03-26T01:22:20.329Z,16.00
2023-03-26T01:24:53.250Z,15.90
2023-03-26T01:27:42.286Z,16.00
2023-03-26T01:30:18.142Z,16.00
2023-03-26T01:32:47.858Z,15.90
2023-03-26T01:35:30.495Z,15.90
2023-03-26T01:38:00.349Z,15.90
2023-03-26T01:40:42.886Z,15.90
2023-03-26T01:43:16.066Z,15.90
2023-03-26T01:45:46.284Z,15.90
2023-03-26T01:48:13.953Z,15.90
2023-03-26T01:50:40.936Z,15.90
2023-03-26T01:53:09.345Z,15.90
2023-03-26T01:55:49.660Z,15.90
2023-03-26T01:58:36.891Z,15.80
2023-03-26T02:01:27.328Z,15.90
2023-03-26T02:04:11.861Z,15.80
2023-03-26T02:07:02.589Z,15.80
2023-03-26T02:09:35.922Z,15.80
2023-03-26T02:12:04.327Z,15.80
2023-03-26T02:14:31.507Z,15.80
2023-03-26T02:17:00.106Z,15.90
2023-03-26T02:19:27.163Z,15.80
2023-03-26T02:21:59.777Z,15.80
2023-03-26T02:24:26.806Z,15.80
2023-03-26T02:26:53.667Z,15.80
2023-03-26T02:29:21.410Z,15.80
2023-03-26T02:31:49.215Z,15.80
2023-03-26T02:34:16.876Z,15.80
2023-03-26T02:36:43.916Z,15.80
2023-03-26T02:39:11.076Z,15.70
2023-03-26T02:41:39.157Z,15.70
2023-03-26T02:44:06.331Z,15.80
2023-03-26T02:46:33.877Z,15.80
2023-03-26T02:49:00.738Z,15.70
2023-03-26T02:51:27.648Z,15.60
2023-03-26T02:53:54.884Z,15.70
2023-03-26T02:56:22.264Z,15.70
2023-03-26T02:58:49.082Z,15.70
2023-03-26T03:01:18.462Z,15.70
2023-03-26T03:03:47.520Z,15.70
2023-03-26T03:06:17.245Z,15.60
2023-03-26T03:08:46.263Z,15.60
2023-03-26T03:11:18.423Z,15.60
2023-03-26T03:13:46.120Z,15.60
2023-03-26T03:16:13.094Z,15.70
2023-03-26T03:18:40.297Z,15.50
2023-03-26T03:21:07.306Z,15.60
2023-03-26T03:23:34.199Z,15.60
2023-03-26T03:26:02.837Z,15.50
2023-03-26T03:28:30.668Z,15.60
2023-03-26T03:30:57.772Z,15.60
2023-03-26T03:33:24.821Z,15.60
2023-03-26T03:35:52.037Z,15.60
2023-03-26T03:38:19.342Z,15.50
2023-03-26T03:40:46.380Z,15.60
2023-03-26T03:43:13.311Z,15.60
2023-03-26T03:45:40.313Z,15.60
2023-03-26T03:48:07.297Z,15.60
2023-03-26T03:50:35.789Z,15.60
2023-03-26T03:53:05.715Z,15.60
2023-03-26T03:55:32.889Z,15.60
2023-03-26T03:58:00.096Z,15.50
2023-03-26T04:00:27.037Z,15.60
2023-03-26T04:02:54.580Z,15.60
2023-03-26T04:05:21.850Z,15.60
2023-03-26T04:07:48.850Z,15.70
2023-03-26T04:10:16.727Z,15.70
2023-03-26T04:12:43.659Z,15.70
2023-03-26T04:15:10.716Z,15.70
2023-03-26T04:17:42.660Z,15.70
2023-03-26T04:20:15.974Z,15.70
2023-03-26T04:22:43.937Z,15.70
2023-03-26T04:25:12.646Z,15.70
2023-03-26T04:27:41.801Z,15.70
2023-03-26T04:30:12.622Z,15.70
2023-03-26T04:32:40.606Z,15.70
2023-03-26T04:35:08.001Z,15.70
2023-03-26T04:37:40.961Z,15.70
2023-03-26T04:40:18.399Z,15.70
2023-03-26T04:42:48.083Z,15.70
2023-03-26T04:45:17.713Z,15.60
2023-03-26T04:47:46.597Z,15.60
2023-03-26T04:50:13.827Z,15.60
2023-03-26T04:52:42.604Z,15.60
2023-03-26T04:55:24.964Z,15.60
2023-03-26T04:57:57.436Z,15.70
2023-03-26T05:00:24.904Z,15.70
2023-03-26T05:02:54.175Z,15.60
2023-03-26T05:05:21.783Z,15.60
2023-03-26T05:07:48.731Z,15.60
2023-03-26T05:10:17.039Z,15.60
2023-03-26T05:12:43.977Z,15.70
2023-03-26T05:15:12.347Z,15.70
2023-03-26T05:17:41.792Z,15.70
2023-03-26T05:20:30.459Z,15.60
2023-03-26T05:22:57.333Z,15.80
2023-03-26T05:25:24.501Z,15.70
2023-03-26T05:27:51.529Z,15.70
2023-03-26T05:30:21.555Z,15.70
2023-03-26T05:32:49.367Z,15.70
2023-03-26T05:35:20.037Z,15.80
2023-03-26T05:37:48.093Z,15.80
2023-03-26T05:40:17.193Z,15.80
2023-03-26T05:42:45.514Z,15.80
2023-03-26T05:45:15.482Z,15.90
2023-03-26T05:47:42.575Z,15.90
2023-03-26T05:50:11.147Z,15.90
2023-03-26T05:52:38.480Z,15.90
2023-03-26T05:55:06.662Z,15.90
2023-03-26T05:57:35.573Z,16.00
2023-03-26T06:00:04.372Z,16.00
2023-03-26T06:02:31.905Z,16.00
2023-03-26T06:04:58.980Z,16.00
2023-03-26T06:07:27.194Z,16.10
2023-03-26T06:09:54.482Z,16.10
2023-03-26T06:12:22.023Z,16.20
2023-03-26T06:14:49.034Z,16.20
2023-03-26T06:17:15.993Z,16.20
2023-03-26T06:19:43.024Z,16.30
2023-03-26T06:22:10.097Z,16.30
2023-03-26T06:24:36.982Z,16.30
2023-03-26T06:27:04.154Z,16.30
2023-03-26T06:29:31.162Z,16.40
2023-03-26T06:32:06.194Z,16.50
2023-03-26T06:34:39.552Z,16.60
2023-03-26T06:37:06.562Z,16.50
2023-03-26T06:39:33.510Z,16.60
2023-03-26T06:42:00.445Z,16.60
2023-03-26T06:44:27.626Z,16.70
2023-03-26T06:46:54.560Z,16.70
2023-03-26T06:49:21.601Z,16.70
2023-03-26T06:51:51.097Z,16.70
2023-03-26T06:54:18.473Z,16.80
2023-03-26T06:56:45.645Z,16.70
2023-03-26T06:59:12.812Z,16.80
2023-03-26T07:01:40.065Z,16.80
2023-03-26T07:04:07.154Z,16.80
2023-03-26T07:06:34.426Z,16.90
2023-03-26T07:09:01.453Z,17.00
2023-03-26T07:11:29.507Z,17.10
2023-03-26T07:13:56.668Z,17.20
2023-03-26T07:16:23.864Z,17.30
2023-03-26T07:18:52.485Z,17.50
2023-03-26T07:21:20.229Z,17.50
2023-03-26T07:23:47.741Z,17.70
2023-03-26T07:26:30.059Z,17.70
2023-03-26T07:29:03.665Z,17.90
2023-03-26T07:31:46.714Z,18.10
2023-03-26T07:34:48.850Z,18.30
2023-03-26T07:37:42.306Z,18.40
2023-03-26T07:40:12.069Z,18.50
2023-03-26T07:42:54.479Z,18.60
2023-03-26T07:45:36.411Z,18.70
2023-03-26T07:48:04.742Z,18.90
2023-03-26T07:50:31.818Z,18.80
2023-03-26T07:52:59.058Z,19.10
2023-03-26T07:55:26.313Z,19.20
2023-03-26T07:58:00.821Z,19.30
2023-03-26T08:00:34.534Z,19.30
2023-03-26T08:03:12.069Z,19.40
2023-03-26T08:06:02.312Z,19.30
2023-03-26T08:08:45.811Z,19.40
2023-03-26T08:11:38.249Z,19.40
2023-03-26T08:14:30.167Z,19.50
2023-03-26T08:17:10.037Z,19.50
2023-03-26T08:19:58.289Z,19.40
2023-03-26T08:22:41.607Z,19.50
2023-03-26T08:25:53.522Z,19.40
2023-03-26T08:28:32.364Z,19.50
2023-03-26T08:31:08.633Z,19.40
2023-03-26T08:33:38.248Z,19.30
2023-03-26T08:36:06.062Z,19.40
2023-03-26T08:38:33.008Z,19.40
2023-03-26T08:41:12.080Z,19.40
2023-03-26T08:43:55.493Z,19.50
2023-03-26T08:46:54.285Z,19.70
2023-03-26T08:49:36.527Z,19.80
2023-03-26T08:52:08.912Z,20.00
2023-03-26T08:55:06.303Z,20.00
2023-03-26T08:57:54.191Z,19.90
2023-03-26T09:00:39.805Z,19.90
2023-03-26T09:03:41.472Z,20.00
2023-03-26T09:06:43.998Z,20.00
2023-03-26T09:09:38.434Z,20.00
2023-03-26T09:12:05.522Z,20.00
2023-03-26T09:14:51.376Z,19.90
2023-03-26T09:18:09.752Z,20.00
2023-03-26T09:21:09.414Z,20.20
2023-03-26T09:24:14.196Z,20.10
2023-03-26T09:27:00.643Z,20.20
2023-03-26T09:29:48.888Z,20.10
2023-03-26T09:32:35.785Z,20.10
2023-03-26T09:35:13.315Z,20.30
2023-03-26T09:37:56.625Z,20.10
2023-03-26T09:40:44.221Z,20.00
2023-03-26T09:43:32.815Z,19.90
2023-03-26T09:46:18.845Z,20.00
2023-03-26T09:49:15.822Z,19.90
2023-03-26T09:52:01.563Z,19.80
2023-03-26T09:54:44.675Z,19.80
2023-03-26T09:57:51.305Z,19.80
2023-03-26T10:00:32.549Z,19.80
2023-03-26T10:03:08.719Z,20.00
2023-03-26T10:05:50.603Z,20.10
2023-03-26T10:08:29.282Z,20.20
2023-03-26T10:11:20.281Z,20.40
2023-03-26T10:14:12.754Z,20.50
2023-03-26T10:16:58.102Z,20.80
2023-03-26T10:19:46.592Z,20.80
2023-03-26T10:22:17.643Z,21.00
2023-03-26T10:25:15.464Z,21.00
2023-03-26T10:28:08.009Z,21.20
2023-03-26T10:30:45.845Z,21.20
2023-03-26T10:33:35.755Z,21.40
2023-03-26T10:36:22.105Z,21.50
2023-03-26T10:38:52.181Z,21.70
2023-03-26T10:41:31.258Z,21.80
2023-03-26T10:44:08.082Z,21.90
2023-03-26T10:47:15.004Z,21.90
2023-03-26T10:49:52.380Z,21.90
2023-03-26T10:52:29.614Z,21.90
2023-03-26T10:55:27.959Z,21.90
2023-03-26T10:58:48.344Z,21.90
2023-03-26T11:01:49.150Z,21.90
2023-03-26T11:04:32.685Z,22.00
2023-03-26T11:07:09.665Z,22.10
2023-03-26T11:09:52.690Z,22.30
2023-03-26T11:12:33.909Z,22.10
2023-03-26T11:15:15.898Z,22.30
2023-03-26T11:17:59.047Z,22.30
2023-03-26T11:20:41.885Z,22.60
2023-03-26T11:23:32.959Z,22.60
2023-03-26T11:26:16.878Z,22.40
2023-03-26T11:29:04.284Z,22.30
2023-03-26T11:32:10.664Z,22.30
2023-03-26T11:34:39.589Z,22.20
2023-03-26T11:37:15.583Z,22.20
2023-03-26T11:39:53.887Z,22.40
2023-03-26T11:42:24.819Z,22.40
2023-03-26T11:45:02.620Z,22.30
2023-03-26T11:47:52.970Z,22.10
2023-03-26T11:50:27.698Z,21.90
2023-03-26T11:52:58.587Z,21.70
2023-03-26T11:55:27.744Z,21.70
2023-03-26T11:57:58.170Z,21.70
2023-03-26T12:00:27.723Z,21.70
2023-03-26T12:02:59.856Z,21.80
2023-03-26T12:05:33.691Z,21.70
2023-03-26T12:08:17.800Z,21.80
2023-03-26T12:10:44.740Z,21.80
2023-03-26T12:13:43.326Z,21.80
2023-03-26T12:16:17.255Z,21.90
2023-03-26T12:18:46.275Z,22.00
2023-03-26T12:21:19.703Z,22.10
2023-03-26T12:24:00.717Z,22.10
2023-03-26T12:26:43.299Z,22.20
2023-03-26T12:29:21.466Z,22.40
2023-03-26T12:32:08.013Z,22.50
2023-03-26T12:34:39.985Z,22.70
2023-03-26T12:37:29.394Z,22.90
2023-03-26T12:40:26.647Z,23.00
2023-03-26T12:44:56.209Z,23.20
2023-03-26T12:47:15.143Z,23.40
2023-03-26T12:48:46.344Z,23.50
2023-03-26T12:51:23.518Z,23.40
2023-03-26T12:54:15.481Z,23.20
2023-03-26T12:57:11.821Z,23.10
2023-03-26T12:59:49.894Z,22.90
2023-03-26T13:03:03.715Z,22.70
2023-03-26T13:05:55.193Z,22.70
2023-03-26T13:08:40.734Z,22.60
2023-03-26T13:11:13.569Z,22.40
2023-03-26T13:13:44.675Z,22.30
2023-03-26T13:16:31.336Z,22.30
2023-03-26T13:19:13.521Z,22.30
2023-03-26T13:22:08.825Z,22.20
2023-03-26T13:24:59.765Z,22.20
2023-03-26T13:28:04.583Z,22.30
2023-03-26T13:30:47.398Z,22.30
2023-03-26T13:33:32.138Z,22.10
2023-03-26T13:36:22.425Z,22.10
2023-03-26T13:39:08.083Z,22.00
2023-03-26T13:41:51.839Z,22.00
2023-03-26T13:44:28.028Z,22.20
2023-03-26T13:47:10.713Z,22.20
2023-03-26T13:49:46.844Z,22.40
2023-03-26T13:52:22.846Z,22.60
2023-03-26T13:54:58.502Z,22.60
2023-03-26T13:57:31.936Z,22.50
2023-03-26T14:00:06.458Z,22.50
2023-03-26T14:02:40.753Z,22.40
2023-03-26T14:05:18.959Z,22.30
2023-03-26T14:08:19.948Z,22.30
2023-03-26T14:10:54.063Z,22.10
2023-03-26T14:13:39.819Z,22.10
2023-03-26T14:16:39.247Z,22.00
2023-03-26T14:19:31.097Z,21.90
2023-03-26T14:22:23.532Z,22.10
2023-03-26T14:24:58.844Z,22.10
2023-03-26T14:27:34.472Z,22.10
2023-03-26T14:30:23.204Z,22.00
2023-03-26T14:33:28.128Z,22.00
2023-03-26T14:36:27.938Z,22.10
2023-03-26T14:39:11.625Z,22.30
2023-03-26T14:41:59.276Z,22.30
2023-03-26T14:44:48.811Z,22.20
2023-03-26T14:47:20.696Z,22.20
2023-03-26T14:50:12.254Z,22.10
2023-03-26T14:52:51.099Z,22.00
2023-03-26T14:55:42.738Z,21.80
2023-03-26T14:58:28.543Z,21.70
2023-03-26T15:01:27.036Z,21.60
2023-03-26T15:04:18.223Z,21.50
2023-03-26T15:07:06.511Z,21.40
2023-03-26T15:09:49.556Z,21.30
2023-03-26T15:12:28.758Z,21.20
2023-03-26T15:15:11.153Z,21.00
2023-03-26T15:18:39.751Z,21.00
2023-03-26T15:21:53.355Z,20.90
2023-03-26T15:24:44.936Z,20.80
2023-03-26T15:27:37.022Z,20.70
2023-03-26T15:30:47.488Z,20.60
2023-03-26T15:33:42.258Z,20.50
2023-03-26T15:36:37.364Z,20.50
2023-03-26T15:39:38.352Z,20.40
2023-03-26T15:42:13.374Z,20.30
2023-03-26T15:44:53.184Z,20.10
2023-03-26T15:47:53.355Z,20.00
2023-03-26T15:50:29.606Z,20.00
2023-03-26T15:53:19.114Z,19.70
2023-03-26T15:56:03.648Z,19.80
2023-03-26T15:58:36.871Z,19.70
2023-03-26T16:01:22.042Z,19.70
2023-03-26T16:04:14.858Z,19.70
2023-03-26T16:07:02.996Z,19.60
2023-03-26T16:09:45.800Z,19.40
2023-03-26T16:12:12.803Z,19.40
2023-03-26T16:15:26.368Z,19.30
2023-03-26T16:18:27.703Z,19.30
2023-03-26T16:21:02.067Z,19.30
2023-03-26T16:23:54.512Z,19.10
2023-03-26T16:26:40.629Z,19.10
2023-03-26T16:29:28.349Z,19.10
2023-03-26T16:32:09.259Z,19.10
2023-03-26T16:34:58.160Z,19.00
2023-03-26T16:37:39.942Z,19.00
2023-03-26T16:40:20.847Z,19.00
2023-03-26T16:42:50.461Z,19.00
2023-03-26T16:45:51.930Z,18.90
2023-03-26T16:48:45.533Z,18.90
2023-03-26T16:51:33.919Z,18.90
2023-03-26T16:54:09.656Z,18.90
2023-03-26T16:56:53.445Z,18.70
2023-03-26T16:59:36.731Z,18.70
2023-03-26T17:02:20.016Z,18.60
2023-03-26T17:04:52.157Z,18.60
2023-03-26T17:08:01.415Z,18.50
2023-03-26T17:10:56.933Z,18.50
2023-03-26T17:13:51.111Z,18.40
2023-03-26T17:16:32.194Z,18.40
2023-03-26T17:19:09.560Z,18.40
2023-03-26T17:21:55.722Z,18.40
2023-03-26T17:25:00.384Z,18.40
2023-03-26T17:27:50.033Z,18.40
2023-03-26T17:30:49.360Z,18.30
2023-03-26T17:33:29.717Z,18.30
2023-03-26T17:36:11.501Z,18.20
2023-03-26T17:38:39.067Z,18.20
2023-03-26T17:41:08.761Z,18.20
2023-03-26T17:43:41.148Z,18.20
2023-03-26T17:46:25.787Z,18.10
2023-03-26T17:49:27.094Z,18.20
2023-03-26T17:52:20.965Z,18.10
2023-03-26T17:54:51.297Z,18.20
2023-03-26T17:57:57.082Z,18.20
2023-03-26T18:00:32.960Z,18.20
2023-03-26T18:03:04.978Z,18.10
2023-03-26T18:05:39.224Z,18.10
2023-03-26T18:08:15.278Z,18.10
2023-03-26T18:11:08.248Z,17.90
2023-03-26T18:14:08.617Z,17.90
2023-03-26T18:16:52.200Z,17.70
2023-03-26T18:19:23.087Z,17.70
2023-03-26T18:21:52.701Z,17.60
2023-03-26T18:24:46.261Z,17.60
2023-03-26T18:27:20.486Z,17.50
2023-03-26T18:30:02.221Z,17.30
2023-03-26T18:32:34.092Z,17.30
2023-03-26T18:35:23.563Z,17.20
2023-03-26T18:37:53.613Z,17.20
2023-03-26T18:40:23.030Z,17.10
2023-03-26T18:43:19.442Z,17.10
2023-03-26T18:45:55.256Z,17.10
2023-03-26T18:48:24.757Z,17.00
2023-03-26T18:50:56.444Z,16.90
2023-03-26T18:53:30.258Z,17.00
2023-03-26T18:55:58.772Z,16.90
2023-03-26T18:58:37.066Z,16.90
2023-03-26T19:01:11.866Z,16.80
2023-03-26T19:03:44.561Z,16.90
2023-03-26T19:06:14.051Z,16.90
2023-03-26T19:08:44.735Z,16.90
2023-03-26T19:11:15.855Z,16.80
2023-03-26T19:13:42.970Z,16.80
2023-03-26T19:16:24.819Z,16.80
2023-03-26T19:18:52.526Z,16.80
2023-03-26T19:21:23.255Z,16.80
2023-03-26T19:23:52.184Z,16.70
2023-03-26T19:26:19.221Z,16.60
2023-03-26T19:28:53.416Z,16.60
2023-03-26T19:31:33.238Z,16.60
2023-03-26T19:34:14.027Z,16.60
2023-03-26T19:37:00.855Z,16.50
2023-03-26T19:39:48.220Z,16.40
2023-03-26T19:42:43.587Z,16.40
2023-03-26T19:45:18.185Z,16.30
2023-03-26T19:47:48.663Z,16.30
2023-03-26T19:50:30.693Z,16.30
2023-03-26T19:53:15.324Z,16.30
2023-03-26T19:55:57.442Z,16.40
2023-03-26T19:58:26.196Z,16.40
2023-03-26T20:00:53.999Z,16.30
2023-03-26T20:03:41.739Z,16.30
2023-03-26T20:06:23.688Z,16.30
2023-03-26T20:08:55.558Z,16.30
2023-03-26T20:11:34.339Z,16.20
2023-03-26T20:14:02.067Z,16.20
2023-03-26T20:16:31.922Z,16.10
2023-03-26T20:19:02.509Z,16.00
2023-03-26T20:21:30.153Z,16.00
2023-03-26T20:23:57.121Z,16.00
2023-03-26T20:26:24.798Z,16.00
2023-03-26T20:28:53.854Z,15.90
2023-03-26T20:31:25.214Z,15.90
2023-03-26T20:33:54.270Z,16.00
2023-03-26T20:36:33.763Z,15.90
2023-03-26T20:39:06.230Z,16.00
2023-03-26T20:41:34.446Z,16.00
2023-03-26T20:44:03.782Z,16.00
2023-03-26T20:46:31.857Z,16.10
2023-03-26T20:48:59.846Z,16.10
2023-03-26T20:51:28.770Z,16.10
2023-03-26T20:53:56.482Z,16.20
2023-03-26T20:56:23.704Z,16.20
2023-03-26T20:59:03.647Z,16.20
2023-03-26T21:01:38.190Z,16.20
2023-03-26T21:04:06.088Z,16.20
2023-03-26T21:06:32.994Z,16.20
2023-03-26T21:09:00.155Z,16.20
2023-03-26T21:11:49.389Z,16.20
2023-03-26T21:14:21.935Z,16.20
2023-03-26T21:16:49.075Z,16.20
2023-03-26T21:19:16.302Z,16.20
2023-03-26T21:21:59.064Z,16.30
2023-03-26T21:24:35.211Z,16.20
2023-03-26T21:27:08.495Z,16.20
2023-03-26T21:29:35.969Z,16.20
2023-03-26T21:32:03.272Z,16.20
2023-03-26T21:34:33.534Z,16.20
2023-03-26T21:37:02.311Z,16.20
2023-03-26T21:39:30.018Z,16.00
2023-03-26T21:42:04.663Z,16.00
2023-03-26T21:44:32.959Z,16.00
2023-03-26T21:47:00.403Z,16.00
2023-03-26T21:49:27.788Z,15.90
2023-03-26T21:51:55.154Z,15.90
2023-03-26T21:54:23.635Z,15.80
2023-03-26T21:57:17.524Z,15.90
2023-03-26T21:59:56.660Z,15.80
2023-03-26T22:02:39.685Z,15.70
2023-03-26T22:05:15.099Z,15.70
2023-03-26T22:07:58.864Z,15.70
2023-03-26T22:10:27.136Z,15.60
2023-03-26T22:12:54.401Z,15.60
2023-03-26T22:15:21.903Z,15.50
2023-03-26T22:17:54.170Z,15.50
2023-03-26T22:20:24.939Z,15.50
2023-03-26T22:22:55.778Z,15.60
2023-03-26T22:25:24.157Z,15.50
2023-03-26T22:27:51.785Z,15.50
2023-03-26T22:30:20.902Z,15.60
2023-03-26T22:32:48.691Z,15.70
2023-03-26T22:35:16.255Z,15.70
2023-03-26T22:37:43.348Z,15.80
2023-03-26T22:40:15.568Z,15.80
2023-03-26T22:42:42.553Z,15.80
2023-03-26T22:45:10.217Z,15.90
2023-03-26T22:47:38.310Z,15.90
2023-03-26T22:50:10.011Z,15.90
2023-03-26T22:52:37.506Z,16.00
2023-03-26T22:55:05.395Z,15.90
2023-03-26T22:57:32.365Z,16.00
2023-03-26T23:00:09.108Z,16.00
2023-03-26T23:02:36.149Z,16.00
2023-03-26T23:05:03.141Z,16.00
2023-03-26T23:07:31.568Z,16.00
2023-03-26T23:09:58.535Z,16.00
2023-03-26T23:12:26.780Z,15.90
2023-03-26T23:14:53.773Z,16.10
2023-03-26T23:17:20.926Z,16.00
2023-03-26T23:19:47.955Z,16.10
2023-03-26T23:22:14.912Z,16.00
2023-03-26T23:24:41.936Z,16.10
2023-03-26T23:27:09.002Z,16.10
2023-03-26T23:29:36.596Z,16.00
2023-03-26T23:32:03.804Z,16.00
2023-03-26T23:34:51.699Z,16.10
2023-03-26T23:37:23.459Z,16.10
2023-03-26T23:39:51.605Z,16.10
2023-03-26T23:42:28.235Z,16.10
2023-03-26T23:44:57.086Z,16.10
2023-03-26T23:47:24.363Z,16.10
2023-03-26T23:49:51.544Z,16.10
2023-03-26T23:52:18.954Z,16.10
2023-03-26T23:54:45.944Z,16.10
2023-03-26T23:57:12.948Z,16.00
2023-03-26T23:59:41.519Z,16.20
